Time;durP1;ratioP1;P1;durP2;ratioP2;P2;SDS_P1;SDS_P2;PMS_P1;PMS_P2;Temp;Humidity;BMP_temperature;BMP_pressure;BME280_temperature;BME280_humidity;BME280_pressure;Samples;Min_cycle;Max_cycle;Signal;HPM_P1;HPM_P2
2021/09/06 00:01:04;;;;;;;8.43;7.50;;;;;;;17.68;70.35;155903.97;5068856;28;20477;-82
2021/09/06 00:03:40;;;;;;;8.37;7.57;;;;;;;17.55;71.40;155872.72;5060151;28;20534;-82
2021/09/06 00:06:16;;;;;;;9.00;8.10;;;;;;;17.50;71.76;155858.38;5066397;28;20651;-82
2021/09/06 00:08:51;;;;;;;11.73;7.10;;;;;;;17.50;70.75;155858.38;5065675;28;20478;-82
2021/09/06 00:11:27;;;;;;;7.93;7.23;;;;;;;17.42;71.76;155838.81;5073186;28;20446;-82
2021/09/06 00:14:03;;;;;;;8.73;7.80;;;;;;;17.47;70.70;155850.56;5048465;28;20455;-82
2021/09/06 00:16:38;;;;;;;8.77;7.97;;;;;;;17.54;69.99;155868.84;5062397;28;20952;-83
2021/09/06 00:19:15;;;;;;;7.83;7.03;;;;;;;17.41;71.12;155836.25;5048960;28;20549;-83
2021/09/06 00:21:51;;;;;;;8.83;7.50;;;;;;;17.37;71.12;155825.81;5066908;28;20454;-82
2021/09/06 00:24:26;;;;;;;8.00;6.97;;;;;;;17.31;71.68;155808.91;5082169;28;20560;-82
2021/09/06 00:27:02;;;;;;;9.30;8.23;;;;;;;17.28;72.08;155802.41;5082672;28;20434;-82
2021/09/06 00:29:41;;;;;;;8.97;8.07;;;;;;;17.23;72.70;155788.09;5068563;28;20455;-83
2021/09/06 00:32:16;;;;;;;9.53;7.77;;;;;;;17.23;73.78;155788.09;5068561;28;20438;-82
2021/09/06 00:34:53;;;;;;;8.47;7.63;;;;;;;17.19;73.27;155777.66;5035185;28;20478;-82
2021/09/06 00:37:29;;;;;;;10.03;7.80;;;;;;;17.20;73.67;155780.28;5048598;28;20474;-82
2021/09/06 00:40:07;;;;;;;10.17;7.77;;;;;;;17.12;74.20;155759.47;5049535;28;20801;-82
2021/09/06 00:42:42;;;;;;;8.63;7.73;;;;;;;17.12;74.15;155760.78;5051359;28;20549;-83
2021/09/06 00:45:18;;;;;;;8.30;7.50;;;;;;;17.11;73.22;155758.16;5066683;28;20456;-82
2021/09/06 00:47:54;;;;;;;7.80;7.10;;;;;;;17.13;73.20;155762.06;5068459;28;20446;-82
2021/09/06 00:50:31;;;;;;;8.60;7.40;;;;;;;17.14;73.62;155765.97;5069310;28;20446;-82
2021/09/06 00:53:07;;;;;;;8.23;7.43;;;;;;;17.12;73.80;155759.47;5052779;28;20806;-82
2021/09/06 00:55:43;;;;;;;10.10;7.30;;;;;;;17.07;73.54;155746.44;5051171;28;20488;-82
2021/09/06 00:58:19;;;;;;;8.43;7.70;;;;;;;17.02;73.98;155736.00;5085348;28;20457;-82
2021/09/06 01:00:56;;;;;;;9.00;8.10;;;;;;;16.97;74.47;155721.75;5067186;28;20998;-82
2021/09/06 01:03:35;;;;;;;8.00;7.27;;;;;;;16.97;74.28;155721.75;5036176;28;20643;-82
2021/09/06 01:06:28;;;;;;;9.00;8.10;;;;;;;16.93;73.92;155711.31;5065756;28;20434;-82
2021/09/06 01:09:16;;;;;;;8.60;7.80;;;;;;;16.98;73.94;155725.63;5052075;28;20450;-82
2021/09/06 01:12:15;;;;;;;7.83;7.00;;;;;;;17.00;73.79;155730.81;5063067;28;20517;-83
2021/09/06 01:14:55;;;;;;;8.43;7.63;;;;;;;16.92;73.65;155710.00;5053217;28;20441;-83
2021/09/06 01:17:31;;;;;;;8.63;7.83;;;;;;;16.92;73.46;155710.00;5068973;28;20418;-82
2021/09/06 01:20:07;;;;;;;9.03;8.03;;;;;;;16.91;74.01;155707.44;5064371;28;20461;-82
2021/09/06 01:22:48;;;;;;;8.73;7.80;;;;;;;16.86;74.37;155694.41;5054292;28;20837;-82
2021/09/06 01:25:25;;;;;;;8.77;7.10;;;;;;;16.79;75.48;155674.88;5072434;28;20469;-82
2021/09/06 01:28:02;;;;;;;8.67;7.87;;;;;;;16.69;76.20;155650.16;5053552;28;20450;-82
2021/09/06 01:30:39;;;;;;;8.70;7.90;;;;;;;16.64;75.95;155635.84;5058410;28;20425;-83
2021/09/06 01:33:15;;;;;;;9.63;8.37;;;;;;;16.60;75.89;155625.47;5062095;28;20535;-82
2021/09/06 01:35:53;;;;;;;9.07;8.07;;;;;;;16.59;76.10;155622.84;5088756;28;20469;-82
2021/09/06 01:38:29;;;;;;;11.63;8.20;;;;;;;16.55;76.33;155613.72;5079631;28;20458;-83
2021/09/06 01:41:05;;;;;;;10.07;8.77;;;;;;;16.48;77.10;155595.47;5074389;28;20465;-82
2021/09/06 01:43:42;;;;;;;8.97;8.07;;;;;;;16.44;77.71;155585.09;5075434;28;20433;-82
2021/09/06 01:46:18;;;;;;;8.47;7.70;;;;;;;16.41;77.35;155577.28;5046076;28;20875;-82
2021/09/06 01:48:54;;;;;;;8.70;7.90;;;;;;;16.32;78.23;155555.16;5075304;28;20438;-82
2021/09/06 01:51:30;;;;;;;10.50;9.47;;;;;;;16.24;78.46;155533.06;5073732;28;20441;-83
2021/09/06 01:54:06;;;;;;;9.03;8.20;;;;;;;16.16;79.29;155513.53;5061007;28;20466;-82
2021/09/06 01:56:42;;;;;;;9.33;8.33;;;;;;;16.13;78.64;155505.75;5088847;28;20497;-83
2021/09/06 01:59:22;;;;;;;9.27;8.33;;;;;;;16.07;79.26;155488.88;5075203;28;20446;-82
2021/09/06 02:01:58;;;;;;;9.70;8.77;;;;;;;16.06;78.86;155487.56;5073296;28;20437;-82
2021/09/06 02:04:34;;;;;;;9.90;8.90;;;;;;;16.17;77.71;155516.16;5074051;28;20442;-82
2021/09/06 02:07:10;;;;;;;8.53;7.63;;;;;;;16.19;78.25;155521.38;5073711;28;20477;-82
2021/09/06 02:09:46;;;;;;;9.50;8.50;;;;;;;16.11;78.17;155499.25;5056643;28;20450;-82
2021/09/06 02:12:23;;;;;;;10.13;8.53;;;;;;;16.10;78.49;155497.94;5048878;28;20447;-82
2021/09/06 02:15:00;;;;;;;8.70;7.60;;;;;;;16.08;78.33;155492.75;5069866;28;20863;-82
2021/09/06 02:17:36;;;;;;;10.10;9.10;;;;;;;16.07;78.75;155488.88;5055468;28;20442;-82
2021/09/06 02:20:12;;;;;;;9.20;8.20;;;;;;;16.00;78.96;155470.63;5044577;28;20450;-82
2021/09/06 02:22:48;;;;;;;9.50;8.50;;;;;;;15.90;79.67;155444.63;5038139;28;20450;-82
2021/09/06 02:25:25;;;;;;;8.60;7.80;;;;;;;15.87;79.93;155438.13;5046878;28;20454;-82
2021/09/06 02:28:01;;;;;;;8.70;7.83;;;;;;;15.89;79.98;155442.00;5072649;28;20438;-82
2021/09/06 02:30:38;;;;;;;9.00;8.00;;;;;;;15.82;80.45;155425.13;5057454;28;20450;-82
2021/09/06 02:33:14;;;;;;;9.07;8.17;;;;;;;15.79;80.62;155417.34;5069683;28;20489;-82
2021/09/06 02:36:09;;;;;;;9.93;8.90;;;;;;;15.75;81.37;155406.97;5074591;28;20473;-82
2021/09/06 02:38:45;;;;;;;11.40;8.43;;;;;;;15.73;81.32;155401.72;5057729;28;20858;-82
2021/09/06 02:41:23;;;;;;;11.03;9.13;;;;;;;15.71;80.93;155397.84;5057668;28;20438;-82
2021/09/06 02:44:00;;;;;;;9.80;8.80;;;;;;;15.68;81.27;155390.03;5059020;28;20448;-81
2021/09/06 02:46:38;;;;;;;9.43;8.50;;;;;;;15.64;81.78;155379.66;5052808;28;20445;-81
2021/09/06 02:49:13;;;;;;;11.30;9.33;;;;;;;15.55;82.25;155354.94;5073385;28;20795;-81
2021/09/06 02:51:49;;;;;;;10.47;9.40;;;;;;;15.52;82.47;155347.13;5057151;28;20936;-81
2021/09/06 02:54:24;;;;;;;9.03;8.13;;;;;;;15.46;82.61;155332.81;5047753;28;20456;-81
2021/09/06 02:57:00;;;;;;;9.97;8.60;;;;;;;15.39;83.27;155314.59;5038823;28;20469;-81
2021/09/06 02:59:37;;;;;;;9.33;8.43;;;;;;;15.42;83.25;155322.41;5073091;28;20446;-81
2021/09/06 03:02:14;;;;;;;10.00;9.07;;;;;;;15.38;83.15;155311.97;5056540;28;20940;-81
2021/09/06 03:04:50;;;;;;;10.43;9.40;;;;;;;15.34;83.93;155300.28;5057104;28;20449;-81
2021/09/06 03:07:27;;;;;;;11.97;9.93;;;;;;;15.35;83.79;155304.22;5057046;28;20947;-81
2021/09/06 03:10:03;;;;;;;10.40;8.40;;;;;;;15.33;83.33;155298.97;5056185;28;20461;-81
2021/09/06 03:12:42;;;;;;;10.03;8.63;;;;;;;15.33;83.94;155297.72;5056504;28;20936;-81
2021/09/06 03:15:18;;;;;;;9.83;8.83;;;;;;;15.30;83.68;155291.22;5071621;28;20436;-81
2021/09/06 03:17:55;;;;;;;10.70;9.20;;;;;;;15.28;83.71;155286.00;5054204;28;20448;-81
2021/09/06 03:20:50;;;;;;;9.90;8.90;;;;;;;15.25;83.85;155278.19;5053944;28;20423;-81
2021/09/06 03:23:26;;;;;;;10.70;9.60;;;;;;;15.21;84.07;155267.81;5084851;28;20486;-81
2021/09/06 03:26:02;;;;;;;9.47;8.57;;;;;;;15.20;83.99;155265.19;5056358;28;20469;-81
2021/09/06 03:28:39;;;;;;;10.33;9.33;;;;;;;15.14;83.92;155249.66;5056037;28;20455;-81
2021/09/06 03:31:16;;;;;;;12.70;9.47;;;;;;;15.12;84.52;155244.41;5082361;28;20546;-81
2021/09/06 03:33:52;;;;;;;10.13;8.60;;;;;;;15.05;84.61;155226.22;5068561;28;20456;-81
2021/09/06 03:36:29;;;;;;;9.90;8.90;;;;;;;15.02;85.15;155219.75;5054398;28;20983;-81
2021/09/06 03:39:05;;;;;;;12.70;9.07;;;;;;;15.02;85.26;155219.75;5051157;28;20458;-81
2021/09/06 03:41:43;;;;;;;11.00;9.90;;;;;;;15.00;85.90;155213.25;5041078;28;20444;-81
2021/09/06 03:44:24;;;;;;;10.27;9.00;;;;;;;14.94;85.46;155198.94;5052102;28;20454;-81
2021/09/06 03:46:59;;;;;;;9.90;8.63;;;;;;;15.01;85.33;155215.88;5038689;28;20871;-81
2021/09/06 03:49:37;;;;;;;11.07;10.00;;;;;;;14.98;85.54;155208.06;5056373;28;20453;-81
2021/09/06 03:52:15;;;;;;;10.00;9.00;;;;;;;14.94;85.34;155197.66;5049832;28;20463;-81
2021/09/06 03:54:50;;;;;;;8.93;8.03;;;;;;;14.95;85.60;155201.56;5088391;28;20451;-81
2021/09/06 03:57:26;;;;;;;11.77;10.00;;;;;;;14.89;86.02;155184.66;5070590;28;20474;-81
2021/09/06 04:00:02;;;;;;;10.30;9.30;;;;;;;14.85;86.18;155174.28;5071482;28;20444;-81
2021/09/06 04:02:43;;;;;;;11.47;10.00;;;;;;;14.83;86.14;155169.06;5038379;28;20449;-81
2021/09/06 04:05:20;;;;;;;11.57;10.20;;;;;;;14.83;86.34;155169.06;5035724;28;20441;-81
2021/09/06 04:07:57;;;;;;;9.83;8.73;;;;;;;14.74;85.91;155145.69;5048755;28;20479;-81
2021/09/06 04:10:33;;;;;;;12.00;8.30;;;;;;;14.73;86.74;155143.09;5053568;28;20491;-82
2021/09/06 04:13:09;;;;;;;10.80;8.33;;;;;;;14.64;87.11;155122.28;5058285;28;20473;-81
2021/09/06 04:15:45;;;;;;;9.90;8.90;;;;;;;14.57;87.01;155102.81;5057493;28;20448;-81
2021/09/06 04:18:21;;;;;;;10.23;9.03;;;;;;;14.67;88.12;155127.53;5064540;28;20452;-81
2021/09/06 04:20:59;;;;;;;10.43;9.43;;;;;;;14.59;87.46;155109.31;5051274;28;20432;-81
2021/09/06 04:23:34;;;;;;;10.77;9.67;;;;;;;14.54;87.60;155095.03;5035526;28;20543;-81
2021/09/06 04:26:37;;;;;;;11.57;9.10;;;;;;;14.49;89.25;155082.03;5058363;28;20565;-81
2021/09/06 04:29:14;;;;;;;11.40;9.50;;;;;;;14.44;89.70;155070.38;5055958;28;20540;-81
2021/09/06 04:31:50;;;;;;;10.00;8.87;;;;;;;14.41;89.31;155062.56;5071366;28;20417;-81
2021/09/06 04:34:26;;;;;;;11.50;10.10;;;;;;;14.40;89.32;155059.94;5055338;28;20449;-81
2021/09/06 04:37:04;;;;;;;13.00;9.90;;;;;;;14.37;89.91;155052.19;5050678;28;20464;-81
2021/09/06 04:39:43;;;;;;;12.30;10.30;;;;;;;14.34;90.82;155044.41;5046149;28;20456;-81
2021/09/06 04:42:19;;;;;;;11.93;10.73;;;;;;;14.31;90.93;155036.59;5071049;28;20797;-81
2021/09/06 04:44:54;;;;;;;11.27;9.90;;;;;;;14.28;91.38;155028.75;5069362;28;20447;-81
2021/09/06 04:47:30;;;;;;;13.13;9.80;;;;;;;14.27;91.79;155026.13;5055204;28;20434;-82
2021/09/06 04:50:07;;;;;;;12.27;10.57;;;;;;;14.26;92.35;155023.56;5035792;28;20454;-81
2021/09/06 04:52:44;;;;;;;11.53;10.33;;;;;;;14.27;92.64;155026.13;5035298;28;20449;-82
2021/09/06 04:55:22;;;;;;;13.77;11.67;;;;;;;14.27;92.46;155026.13;5035459;28;20801;-81
2021/09/06 04:57:58;;;;;;;13.67;11.83;;;;;;;14.27;92.44;155026.13;5075159;28;20470;-81
2021/09/06 05:00:34;;;;;;;11.50;10.33;;;;;;;14.27;93.29;155026.13;5079022;28;20447;-81
2021/09/06 05:03:10;;;;;;;12.00;10.83;;;;;;;14.27;93.61;155024.88;5054902;28;20451;-81
2021/09/06 05:05:45;;;;;;;11.20;10.00;;;;;;;14.27;93.25;155024.88;5054795;28;20521;-82
2021/09/06 05:08:25;;;;;;;11.67;10.43;;;;;;;14.30;93.30;155033.94;5053073;28;20446;-81
2021/09/06 05:11:01;;;;;;;11.93;10.20;;;;;;;14.30;93.42;155033.94;5056724;28;20940;-81
2021/09/06 05:13:39;;;;;;;12.87;10.53;;;;;;;14.32;93.32;155039.16;5074779;28;20434;-82
2021/09/06 05:16:16;;;;;;;13.10;11.13;;;;;;;14.32;93.84;155037.91;5059116;28;20470;-81
2021/09/06 05:18:53;;;;;;;12.40;11.10;;;;;;;14.35;93.81;155045.72;5051657;28;20953;-81
2021/09/06 05:21:28;;;;;;;13.13;10.00;;;;;;;14.36;94.02;155048.28;5058914;28;20434;-81
2021/09/06 05:24:06;;;;;;;12.90;11.27;;;;;;;14.39;93.58;155056.06;5074195;28;20438;-81
2021/09/06 05:26:41;;;;;;;12.60;11.30;;;;;;;14.44;94.32;155070.38;5058072;28;20443;-83
2021/09/06 05:29:17;;;;;;;13.23;11.93;;;;;;;14.44;94.64;155070.38;5056993;28;20827;-82
2021/09/06 05:31:52;;;;;;;13.53;10.90;;;;;;;14.48;94.32;155080.72;5038921;28;20454;-82
2021/09/06 05:34:28;;;;;;;12.10;10.50;;;;;;;14.53;94.13;155093.72;5046628;28;20462;-83
2021/09/06 05:37:04;;;;;;;12.47;11.17;;;;;;;14.52;94.83;155091.16;5057797;28;20469;-83
2021/09/06 05:39:44;;;;;;;13.03;11.70;;;;;;;14.57;94.44;155104.13;5058722;28;20457;-83
2021/09/06 05:42:19;;;;;;;13.17;11.70;;;;;;;14.62;94.72;155117.09;5058269;28;20847;-82
2021/09/06 05:44:55;;;;;;;12.93;11.00;;;;;;;14.68;94.39;155130.09;5038714;28;20504;-83
2021/09/06 05:47:30;;;;;;;12.73;11.07;;;;;;;14.71;93.90;155137.91;5058337;28;20438;-83
2021/09/06 05:50:07;;;;;;;14.60;13.17;;;;;;;14.80;93.84;155162.56;5041132;28;20459;-83
2021/09/06 05:52:54;;;;;;;13.43;11.60;;;;;;;14.95;93.64;155201.56;5048793;28;20830;-82
2021/09/06 05:55:31;;;;;;;12.10;10.83;;;;;;;15.15;93.55;155252.22;5038966;28;20428;-82
2021/09/06 05:58:06;;;;;;;12.97;11.57;;;;;;;15.35;93.23;155304.22;5044799;28;20501;-82
2021/09/06 06:00:42;;;;;;;12.43;10.73;;;;;;;15.59;92.89;155365.34;5039154;28;20461;-82
2021/09/06 06:03:18;;;;;;;13.00;11.70;;;;;;;15.83;91.20;155427.75;5055422;28;20455;-82
2021/09/06 06:05:54;;;;;;;12.57;11.13;;;;;;;16.12;90.65;155503.16;5071527;28;20441;-82
2021/09/06 06:08:30;;;;;;;13.10;11.60;;;;;;;16.28;89.13;155543.47;5053618;28;20448;-82
2021/09/06 06:11:08;;;;;;;12.57;10.80;;;;;;;16.61;88.55;155628.03;5073883;28;20441;-82
2021/09/06 06:13:44;;;;;;;13.50;10.97;;;;;;;16.84;87.00;155689.19;5074824;28;20434;-84
2021/09/06 06:16:20;;;;;;;11.73;10.63;;;;;;;16.97;85.85;155721.75;5074564;28;20438;-86
2021/09/06 06:18:56;;;;;;;11.00;10.00;;;;;;;17.20;84.91;155780.28;5058786;28;20476;-85
2021/09/06 06:21:35;;;;;;;11.00;9.93;;;;;;;17.37;84.36;155824.50;5074198;28;20438;-86
2021/09/06 06:24:36;;;;;;;11.93;10.73;;;;;;;17.60;82.53;155884.47;5074775;28;20560;-85
2021/09/06 06:27:30;;;;;;;11.50;10.10;;;;;;;17.84;81.71;155946.97;5057124;28;20447;-86
2021/09/06 06:30:08;;;;;;;11.63;10.27;;;;;;;17.98;80.57;155983.38;5040754;28;21052;-86
2021/09/06 06:32:47;;;;;;;11.17;9.57;;;;;;;18.20;79.20;156039.38;5057237;28;20446;-87
2021/09/06 06:35:42;;;;;;;10.27;9.17;;;;;;;18.39;77.82;156088.88;5074186;28;20434;-87
2021/09/06 06:38:18;;;;;;;10.33;8.97;;;;;;;18.66;75.88;156158.00;5073714;28;20473;-86
2021/09/06 06:41:00;;;;;;;10.50;9.50;;;;;;;18.97;75.36;156238.75;5052927;28;20443;-86
2021/09/06 06:43:46;;;;;;;10.80;9.70;;;;;;;19.21;74.14;156301.31;5057034;28;20461;-86
2021/09/06 06:46:24;;;;;;;13.33;9.03;;;;;;;19.41;72.89;156353.47;5051591;28;20451;-87
2021/09/06 06:49:00;;;;;;;10.43;9.33;;;;;;;19.51;71.23;156376.97;5060001;28;20533;-87
2021/09/06 06:51:40;;;;;;;10.10;9.07;;;;;;;19.70;70.23;156426.47;5040228;28;20441;-87
2021/09/06 06:54:16;;;;;;;9.20;8.27;;;;;;;19.94;68.75;156489.06;5060846;28;20908;-86
2021/09/06 06:56:51;;;;;;;9.43;8.50;;;;;;;20.12;68.81;156534.72;5057157;28;20470;-87
2021/09/06 06:59:28;;;;;;;10.13;9.00;;;;;;;20.24;67.35;156567.38;5059027;28;20443;-87
2021/09/06 07:02:04;;;;;;;9.50;8.60;;;;;;;20.57;68.06;156653.44;5054240;28;20474;-87
2021/09/06 07:04:40;;;;;;;9.20;8.30;;;;;;;20.83;67.21;156718.69;5078933;28;20937;-87
2021/09/06 07:07:17;;;;;;;9.10;8.20;;;;;;;21.09;64.31;156786.59;5049042;28;20435;-87
2021/09/06 07:09:52;;;;;;;8.87;7.93;;;;;;;21.24;64.76;156825.72;5053620;28;20443;-87
2021/09/06 07:12:28;;;;;;;9.50;8.57;;;;;;;21.48;63.59;156887.06;5069881;28;20465;-87
2021/09/06 07:15:06;;;;;;;8.03;7.33;;;;;;;21.61;63.32;156922.31;5052541;28;20443;-87
2021/09/06 07:17:42;;;;;;;9.33;8.43;;;;;;;21.88;62.55;156990.25;5056527;28;20463;-88
2021/09/06 07:20:17;;;;;;;8.63;7.57;;;;;;;21.94;63.51;157007.25;5055896;28;20441;-87
2021/09/06 07:22:53;;;;;;;9.07;8.17;;;;;;;22.21;61.81;157077.75;5069718;28;20434;-88
2021/09/06 07:25:29;;;;;;;9.23;8.33;;;;;;;22.43;60.90;157135.22;5064647;28;20470;-88
2021/09/06 07:28:05;;;;;;;9.30;8.40;;;;;;;22.42;59.07;157131.31;5069423;28;20450;-88
2021/09/06 07:30:42;;;;;;;10.20;9.30;;;;;;;22.40;59.01;157126.06;5060389;28;20451;-87
2021/09/06 07:33:17;;;;;;;8.40;7.60;;;;;;;22.59;58.51;157175.72;5057337;28;20454;-88
2021/09/06 07:35:53;;;;;;;9.13;8.23;;;;;;;22.88;56.63;157251.53;5055302;28;20920;-88
2021/09/06 07:38:32;;;;;;;8.80;7.90;;;;;;;23.20;55.46;157332.53;5069357;28;20471;-87
2021/09/06 07:41:07;;;;;;;8.83;8.03;;;;;;;23.30;55.48;157358.72;5069487;28;20471;-87
2021/09/06 07:43:46;;;;;;;7.47;6.77;;;;;;;23.57;54.44;157429.31;5037899;28;20454;-88
2021/09/06 07:46:23;;;;;;;9.57;8.70;;;;;;;23.44;52.37;157395.34;5043860;28;20454;-87
2021/09/06 07:49:01;;;;;;;8.60;7.70;;;;;;;23.66;53.04;157451.56;5052746;28;20459;-88
2021/09/06 07:51:38;;;;;;;9.43;7.83;;;;;;;23.71;52.47;157464.63;5041388;28;20442;-88
2021/09/06 07:54:16;;;;;;;8.90;8.10;;;;;;;23.71;52.47;157465.94;5067658;28;20480;-88
2021/09/06 07:56:52;;;;;;;8.00;7.30;;;;;;;23.95;52.72;157527.38;5053561;28;20450;-88
2021/09/06 07:59:29;;;;;;;8.37;7.53;;;;;;;24.28;52.47;157612.44;5072110;28;20442;-88
2021/09/06 08:01:58;;;;;;;8.97;8.10;;;;;;;24.47;51.08;157662.13;5070616;28;20498;-89
2021/09/06 08:04:34;;;;;;;8.47;7.67;;;;;;;24.20;50.86;157594.09;5056159;28;20449;-88
2021/09/06 08:07:12;;;;;;;8.30;7.53;;;;;;;24.26;49.88;157607.19;5068881;28;20446;-88
2021/09/06 08:09:47;;;;;;;11.43;7.50;;;;;;;24.38;50.81;157638.59;5069673;28;20454;-88
2021/09/06 08:12:23;;;;;;;7.27;6.60;;;;;;;24.48;51.40;157664.75;5072457;28;20446;-89
2021/09/06 08:14:58;;;;;;;9.10;8.30;;;;;;;24.75;47.79;157735.41;5072502;28;20446;-89
2021/09/06 08:17:35;;;;;;;7.80;7.10;;;;;;;24.97;49.30;157793.00;5043699;28;20478;-88
2021/09/06 08:20:13;;;;;;;8.20;7.40;;;;;;;24.95;48.42;157787.75;5063726;28;20829;-89
2021/09/06 08:22:48;;;;;;;7.50;6.80;;;;;;;24.65;48.30;157709.19;5063280;28;20449;-88
2021/09/06 08:25:24;;;;;;;8.00;7.30;;;;;;;25.06;47.60;157816.56;5040461;28;20482;-88
2021/09/06 08:28:00;;;;;;;8.03;7.23;;;;;;;24.85;48.41;157760.28;5082418;28;20813;-88
2021/09/06 08:30:35;;;;;;;8.60;7.80;;;;;;;24.83;48.89;157757.66;5056053;28;20793;-88
2021/09/06 08:33:13;;;;;;;10.20;7.97;;;;;;;24.81;49.25;157751.13;5066825;28;20928;-88
2021/09/06 08:35:48;;;;;;;9.67;8.00;;;;;;;24.41;48.69;157646.47;5055145;28;20447;-88
2021/09/06 08:38:25;;;;;;;9.07;8.13;;;;;;;24.22;50.25;157599.31;5068071;28;20832;-88
2021/09/06 08:41:07;;;;;;;8.70;7.90;;;;;;;24.80;49.46;157749.84;5068377;28;20470;-88
2021/09/06 08:43:42;;;;;;;8.87;8.03;;;;;;;24.80;48.81;157748.53;5040569;28;20453;-85
2021/09/06 08:46:27;;;;;;;8.17;7.37;;;;;;;24.96;49.93;157789.09;5063905;28;20438;-86
2021/09/06 08:49:04;;;;;;;9.10;8.20;;;;;;;25.19;48.75;157849.25;5052056;28;20450;-85
2021/09/06 08:51:39;;;;;;;8.93;8.13;;;;;;;25.12;48.31;157832.28;5054787;28;20443;-85
2021/09/06 08:54:15;;;;;;;8.33;7.60;;;;;;;25.02;47.01;157806.06;5051990;28;20943;-85
2021/09/06 08:56:51;;;;;;;9.60;8.70;;;;;;;25.24;46.72;157863.66;5054709;28;20430;-85
2021/09/06 08:59:27;;;;;;;10.37;9.47;;;;;;;24.90;48.31;157774.69;5069299;28;20442;-85
2021/09/06 09:02:22;;;;;;;8.10;7.40;;;;;;;25.11;48.72;157829.63;5051810;28;20450;-85
2021/09/06 09:05:11;;;;;;;8.73;7.70;;;;;;;24.71;49.88;157724.91;5067726;28;20954;-85
2021/09/06 09:08:10;;;;;;;8.90;8.10;;;;;;;25.09;51.02;157824.41;5058581;28;20497;-85
2021/09/06 09:11:18;;;;;;;8.63;7.83;;;;;;;24.84;49.02;157758.97;5049777;28;20442;-85
2021/09/06 09:14:13;;;;;;;8.70;7.80;;;;;;;24.41;49.40;157646.47;5046366;28;20528;-85
2021/09/06 09:17:11;;;;;;;7.67;7.07;;;;;;;24.59;50.53;157694.84;5059135;28;20446;-85
2021/09/06 09:20:10;;;;;;;8.17;7.37;;;;;;;24.01;52.38;157544.34;5069617;28;20450;-84
2021/09/06 09:23:09;;;;;;;8.07;7.27;;;;;;;23.95;51.66;157527.38;5065938;28;20450;-86
2021/09/06 09:26:01;;;;;;;7.43;6.53;;;;;;;24.15;51.58;157579.72;5070736;28;20469;-84
2021/09/06 09:29:07;;;;;;;8.40;7.53;;;;;;;24.03;51.36;157548.31;5055541;28;20458;-84
2021/09/06 09:32:10;;;;;;;7.53;6.33;;;;;;;24.05;48.64;157554.84;5056589;28;20488;-84
2021/09/06 09:35:06;;;;;;;7.50;6.80;;;;;;;24.18;50.52;157588.91;5070704;28;20447;-84
2021/09/06 09:37:46;;;;;;;9.83;7.73;;;;;;;24.36;48.10;157634.66;5049106;28;20466;-75
2021/09/06 09:40:32;;;;;;;7.70;6.93;;;;;;;23.99;45.50;157537.81;5062599;28;20451;-75
2021/09/06 09:43:08;;;;;;;7.43;6.83;;;;;;;23.90;45.85;157514.31;5061100;28;20905;-75
2021/09/06 09:45:44;;;;;;;8.00;7.20;;;;;;;23.84;46.32;157498.63;5067517;28;20537;-75
2021/09/06 09:48:36;;;;;;;7.10;6.40;;;;;;;24.03;47.31;157549.63;5038484;28;20443;-75
2021/09/06 09:51:11;;;;;;;7.20;6.50;;;;;;;24.36;43.91;157633.38;5049320;28;20535;-75
2021/09/06 09:53:48;;;;;;;7.20;6.50;;;;;;;24.22;44.95;157599.31;5066673;28;20485;-75
2021/09/06 09:56:25;;;;;;;8.27;7.20;;;;;;;24.32;48.47;157622.88;5066060;28;20860;-75
2021/09/06 09:59:01;;;;;;;9.73;7.53;;;;;;;24.30;44.83;157617.66;5058626;28;20482;-75
2021/09/06 10:01:40;;;;;;;7.97;7.27;;;;;;;23.98;45.29;157536.56;5048265;28;20933;-75
2021/09/06 10:04:20;;;;;;;7.60;6.90;;;;;;;24.19;45.96;157591.53;5077017;28;20881;-75
2021/09/06 10:06:56;;;;;;;7.73;6.77;;;;;;;24.15;47.56;157581.03;5060202;28;20479;-75
2021/09/06 10:09:42;;;;;;;7.90;7.10;;;;;;;24.23;46.09;157601.97;5080739;28;20805;-75
2021/09/06 10:12:20;;;;;;;9.20;7.70;;;;;;;24.07;45.57;157560.06;5076315;28;20446;-75
2021/09/06 10:14:58;;;;;;;9.30;7.57;;;;;;;23.83;46.93;157497.28;5074565;28;20791;-75
2021/09/06 10:17:36;;;;;;;8.60;7.40;;;;;;;23.74;48.16;157473.78;5061168;28;20449;-75
2021/09/06 10:20:21;;;;;;;8.57;7.80;;;;;;;23.70;47.06;157463.31;5053131;28;20439;-75
2021/09/06 10:23:03;;;;;;;9.03;7.40;;;;;;;23.78;47.84;157484.22;5063657;28;20948;-75
2021/09/06 10:25:42;;;;;;;8.70;7.87;;;;;;;23.98;47.67;157536.56;5063535;28;20882;-75
2021/09/06 10:28:19;;;;;;;9.30;8.30;;;;;;;24.03;47.84;157548.31;5057201;28;20553;-75
2021/09/06 10:30:55;;;;;;;8.90;8.10;;;;;;;23.89;48.88;157511.69;5059029;28;20529;-75
2021/09/06 10:33:32;;;;;;;8.70;7.90;;;;;;;23.90;49.34;157514.31;5067603;28;20529;-75
2021/09/06 10:36:09;;;;;;;8.80;7.90;;;;;;;23.83;48.60;157497.28;5070719;28;20925;-75
2021/09/06 10:38:47;;;;;;;9.40;8.50;;;;;;;23.79;50.74;157485.53;5045011;28;20475;-75
2021/09/06 10:41:25;;;;;;;9.63;8.57;;;;;;;24.05;50.83;157553.53;5055226;28;20482;-75
2021/09/06 10:44:09;;;;;;;8.43;7.63;;;;;;;24.06;49.94;157557.47;5037872;28;20483;-75
2021/09/06 10:46:53;;;;;;;8.63;7.93;;;;;;;24.03;49.13;157549.63;5056741;28;20910;-75
2021/09/06 10:49:29;;;;;;;8.70;7.90;;;;;;;24.15;49.99;157579.72;5059014;28;20538;-75
2021/09/06 10:52:07;;;;;;;7.93;7.20;;;;;;;24.11;48.63;157570.59;5070236;28;20447;-75
2021/09/06 10:54:43;;;;;;;9.10;8.40;;;;;;;24.01;49.39;157544.34;5063538;28;20463;-75
2021/09/06 10:57:20;;;;;;;9.23;8.33;;;;;;;24.11;48.36;157569.28;5056181;28;20469;-75
2021/09/06 10:59:56;;;;;;;8.70;7.90;;;;;;;24.03;48.45;157549.63;5064781;28;20518;-75
2021/09/06 11:02:34;;;;;;;8.60;7.80;;;;;;;23.90;49.69;157515.63;5065906;28;20446;-75
2021/09/06 11:05:17;;;;;;;8.93;8.13;;;;;;;23.94;49.22;157526.06;5062301;28;20441;-75
2021/09/06 11:08:04;;;;;;;8.90;8.10;;;;;;;23.82;49.06;157493.41;5053308;28;20530;-76
2021/09/06 11:10:40;;;;;;;9.50;8.60;;;;;;;23.77;48.32;157481.66;5059452;28;20439;-75
2021/09/06 11:13:19;;;;;;;8.67;7.87;;;;;;;23.89;49.50;157513.00;5042755;28;20458;-75
2021/09/06 11:15:55;;;;;;;7.90;7.20;;;;;;;24.08;47.82;157561.38;5080584;28;20450;-76
2021/09/06 11:18:32;;;;;;;8.70;7.83;;;;;;;23.95;48.89;157527.38;5066693;28;20569;-76
2021/09/06 11:21:07;;;;;;;9.63;8.17;;;;;;;24.15;48.99;157579.72;5067218;28;20453;-75
2021/09/06 11:23:45;;;;;;;8.97;8.07;;;;;;;24.07;47.04;157560.06;5068648;28;20832;-75
2021/09/06 11:26:26;;;;;;;11.23;8.47;;;;;;;24.01;48.62;157543.09;5067392;28;20898;-75
2021/09/06 11:29:03;;;;;;;8.87;8.00;;;;;;;24.22;49.76;157598.06;5046656;28;20455;-76
2021/09/06 11:31:39;;;;;;;8.07;7.37;;;;;;;24.40;48.95;157643.81;5071049;28;20458;-75
2021/09/06 11:34:15;;;;;;;8.20;7.50;;;;;;;24.55;48.33;157684.38;5075060;28;20463;-75
2021/09/06 11:36:50;;;;;;;9.00;8.20;;;;;;;24.30;45.75;157617.66;5052756;28;20439;-75
2021/09/06 11:39:29;;;;;;;8.60;7.77;;;;;;;24.16;46.91;157583.69;5067778;28;20475;-75
2021/09/06 11:42:05;;;;;;;8.57;7.87;;;;;;;24.13;48.54;157575.81;5056688;28;20455;-75
2021/09/06 11:44:42;;;;;;;8.10;7.40;;;;;;;24.07;49.15;157558.75;5052128;28;20443;-75
2021/09/06 11:47:18;;;;;;;8.70;7.87;;;;;;;24.19;48.74;157591.53;5062801;28;20884;-75
2021/09/06 11:49:54;;;;;;;8.90;8.10;;;;;;;24.26;50.57;157607.19;5053517;28;20458;-76
2021/09/06 11:52:31;;;;;;;9.23;8.00;;;;;;;24.32;48.18;157622.88;5059002;28;21116;-75
2021/09/06 11:55:12;;;;;;;8.57;7.77;;;;;;;24.26;49.17;157607.19;5062368;28;20454;-76
2021/09/06 11:57:48;;;;;;;9.10;8.20;;;;;;;24.27;47.69;157609.81;5054347;28;20443;-76
2021/09/06 12:00:27;;;;;;;8.33;7.53;;;;;;;24.13;47.19;157574.50;5069280;28;20835;-75
2021/09/06 12:03:02;;;;;;;8.47;7.67;;;;;;;24.10;49.18;157566.66;5062492;28;20450;-76
2021/09/06 12:05:42;;;;;;;8.43;7.63;;;;;;;24.29;45.56;157616.34;5057814;28;20537;-76
2021/09/06 12:08:17;;;;;;;8.00;7.30;;;;;;;24.45;43.87;157656.91;5056190;28;20993;-75
2021/09/06 12:10:53;;;;;;;9.00;8.13;;;;;;;24.34;45.01;157628.13;5071568;28;20461;-75
2021/09/06 12:13:29;;;;;;;8.07;7.37;;;;;;;24.36;46.03;157633.38;5054906;28;20452;-75